Eviapetrol I — SY5401 — position and weather

sailwx.info

Track history (hours):
 
Tides and Currents Weather Stations Pressure Air Temp Water Temp Dewpoint Dewpoint Depression Visibility Wind Speed Wind Dir Waves Ship Positions

Eviapetrol I

Last reported at 2016-May-30 14:19 UTC. Time now 2016-May-31 20:03 UTC.
Position N 37°23' E 024°10'.

Length 75 m; draft 5 m.

Type: Tanker. MMSI: 240285000.

Date/timePositionNaut miles runAvg speedWind from/ knotsBaromVisibWave heightAir tempDewpointWater temp
2016-May-30 14:19N 37°23' E 024°10'8 9.9
2016-May-30 13:31N 37°28' E 024°02'1010.0
2016-May-30 12:33N 37°34' E 023°53'1010.2
2016-May-30 11:33N 37°40' E 023°42'1010.4
2016-May-30 10:34N 37°49' E 023°36'10 9.9
2016-May-30 09:34N 37°51' E 023°24'10 9.9
2016-May-30 08:34N 37°53' E 023°12'6 5.6
2016-May-30 07:32N 37°55' E 023°05'0 0.1
2016-May-30 06:32N 37°55' E 023°05'0 0.0
2016-May-30 05:32N 37°55' E 023°05'0 0.0
2016-May-30 04:32N 37°55' E 023°05'0 0.0
2016-May-30 03:32N 37°55' E 023°05'0 0.0
2016-May-30 02:32N 37°55' E 023°05'0 0.0
2016-May-30 01:26N 37°55' E 023°05'0 0.0
2016-May-30 00:32N 37°55' E 023°05'0 0.0
2016-May-29 23:32N 37°55' E 023°05'0 0.0
2016-May-29 22:32N 37°55' E 023°05'0 0.0
2016-May-29 21:29N 37°55' E 023°05'0 0.0
2016-May-29 20:29N 37°55' E 023°05'0 0.0
2016-May-29 19:32N 37°55' E 023°05'0 0.0
2016-May-29 18:29N 37°55' E 023°05'0 0.0
2016-May-29 17:29N 37°55' E 023°05'1 0.7
2016-May-29 16:33N 37°54' E 023°05'0 0.2
2016-May-29 15:33N 37°54' E 023°05'0 0.0
2016-May-29 14:30N 37°54' E 023°05'0 0.0
2016-May-29 13:33N 37°54' E 023°05'3 3.1
2016-May-29 12:33N 37°55' E 023°01'24 6.1
2016-May-29 08:33N 38°09' E 022°36'5510.0
2016-May-29 03:06N 38°16' E 021°27'610.6
2016-May-29 02:33N 38°16' E 021°19'12 0.3
2016-May-27 15:33N 38°17' E 021°04'10 9.8
2016-May-27 14:33N 38°16' E 021°17'84 9.2
2016-May-27 05:26N 37°55' E 023°00'3 2.9
2016-May-27 04:32N 37°54' E 023°03'2 1.9
2016-May-27 03:33N 37°55' E 023°05'0 0.0
2016-May-27 02:33N 37°55' E 023°05'0 0.0
2016-May-27 01:33N 37°55' E 023°05'0 0.0
2016-May-27 00:33N 37°55' E 023°05'0 0.0
2016-May-26 23:33N 37°55' E 023°05'0 0.0
2016-May-26 22:33N 37°55' E 023°05'0 0.0
2016-May-26 21:33N 37°55' E 023°05'0 0.0
2016-May-26 20:33N 37°55' E 023°05'0 0.0
2016-May-26 19:33N 37°55' E 023°05'0 0.0
2016-May-26 18:33N 37°55' E 023°05'0 0.0
2016-May-26 17:33N 37°55' E 023°05'0 0.0
2016-May-26 16:33N 37°55' E 023°05'0 0.4
2016-May-26 15:33N 37°55' E 023°05'1 0.6
2016-May-26 14:32N 37°54' E 023°05'0 0.0
2016-May-26 13:32N 37°54' E 023°05'0 0.0
2016-May-26 12:29N 37°54' E 023°05'0 0.0
2016-May-26 11:32N 37°55' E 023°05'4 4.3
2016-May-26 10:30N 37°53' E 023°10'1010.3
2016-May-26 09:33N 37°51' E 023°22'1010.2
2016-May-26 08:33N 37°50' E 023°35'9 8.7
2016-May-26 07:33N 37°45' E 023°43'1010.1
2016-May-26 06:33N 37°38' E 023°53'  
2016-May-23 18:24N 37°55' E 025°04'23 8.1
2016-May-23 15:34N 37°55' E 024°35'1010.0
2016-May-23 14:32N 37°48' E 024°25'2210.0
2016-May-23 12:23N 37°37' E 024°01'910.2
2016-May-23 11:33N 37°37' E 023°51'19 9.8
2016-May-23 09:33N 37°53' E 023°36'9 8.8
2016-May-23 08:34N 38°01' E 023°32'0 0.1
2016-May-23 07:31N 38°01' E 023°32'0 0.0
2016-May-23 06:28N 38°01' E 023°32'3 2.9
2016-May-23 05:33N 38°02' E 023°35'0 0.3
2016-May-23 04:33N 38°02' E 023°36'0 0.0
2016-May-23 03:33N 38°02' E 023°36'0 0.0
2016-May-23 02:33N 38°02' E 023°36'0 0.0
2016-May-23 01:33N 38°02' E 023°36'0 0.0
2016-May-23 00:33N 38°02' E 023°36'0 0.0
2016-May-22 23:33N 38°02' E 023°36'0 0.0
2016-May-22 22:33N 38°02' E 023°36'0 0.0
2016-May-22 21:33N 38°02' E 023°36'0 0.0
2016-May-22 20:33N 38°02' E 023°36'0 0.0
2016-May-22 19:33N 38°02' E 023°36'0 0.0
2016-May-22 18:33N 38°02' E 023°36'0 0.0
2016-May-22 17:33N 38°02' E 023°36'1 1.1
2016-May-22 16:33N 38°01' E 023°34'1 1.4
2016-May-22 15:31N 38°01' E 023°32'3 3.6
2016-May-22 14:34N 37°58' E 023°33'9 8.8
2016-May-22 13:34N 37°51' E 023°40'10 9.6
2016-May-22 12:33N 37°42' E 023°45'10 9.8
2016-May-22 11:34N 37°37' E 023°56'3110.2
2016-May-22 08:33N 37°52' E 024°30'  
Track history (hours):
 
Tides and Currents Weather Stations Pressure Air Temp Water Temp Dewpoint Dewpoint Depression Visibility Wind Speed Wind Dir Waves Ship Positions

Eviapetrol I

Last reported at 2016-May-30 14:19 UTC. Time now 2016-May-31 20:03 UTC.
Position N 37°23' E 024°10'.

Length 75 m; draft 5 m.

Type: Tanker. MMSI: 240285000.

Date/timePositionNaut miles runAvg speedWind from/ knotsBaromVisibWave heightAir tempDewpointWater temp
2016-May-30 14:19N 37°23' E 024°10'8 9.9
2016-May-30 13:31N 37°28' E 024°02'1010.0
2016-May-30 12:33N 37°34' E 023°53'1010.2
2016-May-30 11:33N 37°40' E 023°42'1010.4
2016-May-30 10:34N 37°49' E 023°36'10 9.9
2016-May-30 09:34N 37°51' E 023°24'10 9.9
2016-May-30 08:34N 37°53' E 023°12'6 5.6
2016-May-30 07:32N 37°55' E 023°05'0 0.1
2016-May-30 06:32N 37°55' E 023°05'0 0.0
2016-May-30 05:32N 37°55' E 023°05'0 0.0
2016-May-30 04:32N 37°55' E 023°05'0 0.0
2016-May-30 03:32N 37°55' E 023°05'0 0.0
2016-May-30 02:32N 37°55' E 023°05'0 0.0
2016-May-30 01:26N 37°55' E 023°05'0 0.0
2016-May-30 00:32N 37°55' E 023°05'0 0.0
2016-May-29 23:32N 37°55' E 023°05'0 0.0
2016-May-29 22:32N 37°55' E 023°05'0 0.0
2016-May-29 21:29N 37°55' E 023°05'0 0.0
2016-May-29 20:29N 37°55' E 023°05'0 0.0
2016-May-29 19:32N 37°55' E 023°05'0 0.0
2016-May-29 18:29N 37°55' E 023°05'0 0.0
2016-May-29 17:29N 37°55' E 023°05'1 0.7
2016-May-29 16:33N 37°54' E 023°05'0 0.2
2016-May-29 15:33N 37°54' E 023°05'0 0.0
2016-May-29 14:30N 37°54' E 023°05'0 0.0
2016-May-29 13:33N 37°54' E 023°05'3 3.1
2016-May-29 12:33N 37°55' E 023°01'24 6.1
2016-May-29 08:33N 38°09' E 022°36'5510.0
2016-May-29 03:06N 38°16' E 021°27'610.6
2016-May-29 02:33N 38°16' E 021°19'12 0.3
2016-May-27 15:33N 38°17' E 021°04'10 9.8
2016-May-27 14:33N 38°16' E 021°17'84 9.2
2016-May-27 05:26N 37°55' E 023°00'3 2.9
2016-May-27 04:32N 37°54' E 023°03'2 1.9
2016-May-27 03:33N 37°55' E 023°05'0 0.0
2016-May-27 02:33N 37°55' E 023°05'0 0.0
2016-May-27 01:33N 37°55' E 023°05'0 0.0
2016-May-27 00:33N 37°55' E 023°05'0 0.0
2016-May-26 23:33N 37°55' E 023°05'0 0.0
2016-May-26 22:33N 37°55' E 023°05'0 0.0
2016-May-26 21:33N 37°55' E 023°05'0 0.0
2016-May-26 20:33N 37°55' E 023°05'0 0.0
2016-May-26 19:33N 37°55' E 023°05'0 0.0
2016-May-26 18:33N 37°55' E 023°05'0 0.0
2016-May-26 17:33N 37°55' E 023°05'0 0.0
2016-May-26 16:33N 37°55' E 023°05'0 0.4
2016-May-26 15:33N 37°55' E 023°05'1 0.6
2016-May-26 14:32N 37°54' E 023°05'0 0.0
2016-May-26 13:32N 37°54' E 023°05'0 0.0
2016-May-26 12:29N 37°54' E 023°05'0 0.0
2016-May-26 11:32N 37°55' E 023°05'4 4.3
2016-May-26 10:30N 37°53' E 023°10'1010.3
2016-May-26 09:33N 37°51' E 023°22'1010.2
2016-May-26 08:33N 37°50' E 023°35'9 8.7
2016-May-26 07:33N 37°45' E 023°43'1010.1
2016-May-26 06:33N 37°38' E 023°53'  
2016-May-23 18:24N 37°55' E 025°04'23 8.1
2016-May-23 15:34N 37°55' E 024°35'1010.0
2016-May-23 14:32N 37°48' E 024°25'2210.0
2016-May-23 12:23N 37°37' E 024°01'910.2
2016-May-23 11:33N 37°37' E 023°51'19 9.8
2016-May-23 09:33N 37°53' E 023°36'9 8.8
2016-May-23 08:34N 38°01' E 023°32'0 0.1
2016-May-23 07:31N 38°01' E 023°32'0 0.0
2016-May-23 06:28N 38°01' E 023°32'3 2.9
2016-May-23 05:33N 38°02' E 023°35'0 0.3
2016-May-23 04:33N 38°02' E 023°36'0 0.0
2016-May-23 03:33N 38°02' E 023°36'0 0.0
2016-May-23 02:33N 38°02' E 023°36'0 0.0
2016-May-23 01:33N 38°02' E 023°36'0 0.0
2016-May-23 00:33N 38°02' E 023°36'0 0.0
2016-May-22 23:33N 38°02' E 023°36'0 0.0
2016-May-22 22:33N 38°02' E 023°36'0 0.0
2016-May-22 21:33N 38°02' E 023°36'0 0.0
2016-May-22 20:33N 38°02' E 023°36'0 0.0
2016-May-22 19:33N 38°02' E 023°36'0 0.0
2016-May-22 18:33N 38°02' E 023°36'0 0.0
2016-May-22 17:33N 38°02' E 023°36'1 1.1
2016-May-22 16:33N 38°01' E 023°34'1 1.4
2016-May-22 15:31N 38°01' E 023°32'3 3.6
2016-May-22 14:34N 37°58' E 023°33'9 8.8
2016-May-22 13:34N 37°51' E 023°40'10 9.6
2016-May-22 12:33N 37°42' E 023°45'10 9.8
2016-May-22 11:34N 37°37' E 023°56'3110.2
2016-May-22 08:33N 37°52' E 024°30'  

Dump ship's entire track history